Terminal Aerodrome Forecast
Issued by NWS Portland, OR

Home | Current Version | Previous Version | Text Only | Print | Product List | Glossary On
Versions: 1 2 3 4 5 6 7 8 9 10 11 12 13 14 15 16 17 18 19 20 21 22 23 24 25 26 27 28 29 30 31 32
241
FTUS46 KPQR 131132
TAFSLE
TAF
KSLE 131132Z 1312/1412 18007KT P6SM SCT050
     FM131600 18005KT P6SM BKN025 BKN060
     FM131900 18010KT P6SM SCT025 BKN050
     FM132300 18015G25KT P6SM -RA OVC050
     FM140300 18015G25KT P6SM -RA BKN025 OVC050
     FM140900 20010KT P6SM -RA SCT025 OVC040=

USA.gov is the U.S. government's official web portal to all federal, state and local government web resources and services.